Date,TemperatureHighF,TemperatureAvgF,TemperatureLowF,DewpointHighF,DewpointAvgF,DewpointLowF,HumidityHigh,HumidityAvg,HumidityLow,PressureMaxIn,PressureMinIn,WindSpeedMaxMPH,WindSpeedAvgMPH,GustSpeedMaxMPH,PrecipitationSumIn
2013-1-1,47.3,45.2,39.7,47.0,43.2,38.4,99,93,86,29.97,29.82,8,1,10,0.30
2013-1-2,50.4,45.2,40.1,46.1,40.7,32.2,99,85,68,30.03,29.79,6,1,8,0.07
2013-1-3,40.1,38.3,30.6,33.1,31.1,23.0,79,75,65,30.14,29.99,8,2,8,0.00
2013-1-4,45.5,41.7,38.3,41.6,27.1,14.3,86,59,37,30.19,30.15,7,5,10,0.00
2013-1-5,45.5,45.5,45.5,41.6,41.6,41.6,86,86,86,30.25,30.14,5,1,5,0.00
2013-1-6,45.5,45.5,45.5,41.6,41.6,41.6,86,86,86,30.15,30.15,1,1,4,0.00
2013-1-7,45.5,45.5,45.5,41.6,41.6,41.6,86,86,86,30.15,30.15,1,1,4,0.00
2013-1-8,45.5,45.5,45.5,41.6,41.6,41.6,86,86,86,30.15,30.15,1,1,4,0.00
2013-1-9,45.5,45.5,45.5,41.6,41.6,41.6,86,86,86,30.15,30.15,1,1,4,0.00
2013-1-10,45.5,45.5,45.5,41.6,41.6,41.6,86,86,86,30.15,30.15,1,1,4,0.00
2013-1-11,45.5,45.5,45.5,41.6,41.6,41.6,86,86,86,30.15,30.15,1,1,4,0.00
2013-1-12,45.5,45.5,45.5,41.6,41.6,41.6,86,86,86,30.15,30.15,1,1,4,0.00
2013-1-13,45.5,45.5,45.5,41.6,41.6,41.6,86,86,86,30.15,30.15,1,1,4,0.00
2013-1-14,45.5,45.5,45.5,41.6,41.6,41.6,86,86,86,30.15,30.15,1,1,4,0.00
2013-1-15,45.5,45.5,45.5,41.6,41.6,41.6,86,86,86,30.15,30.15,1,1,4,0.00
2013-1-16,45.5,45.5,45.5,41.6,41.6,41.6,86,86,86,30.15,30.15,1,1,4,0.00
2013-1-17,45.5,45.5,45.5,41.6,41.6,41.6,86,86,86,30.15,30.15,1,1,4,0.00
2013-1-18,45.5,45.5,45.5,41.6,41.6,41.6,86,86,86,30.15,30.15,1,1,4,0.00
2013-1-19,45.5,45.5,45.5,41.6,41.6,41.6,86,86,86,30.15,30.15,1,1,4,0.00
2013-1-20,45.5,45.5,45.5,41.6,41.6,41.6,86,86,86,30.15,30.15,1,1,4,0.00
2013-1-21,45.5,45.5,45.5,41.6,41.6,41.6,86,86,86,30.15,30.15,1,1,4,0.00
2013-1-22,45.5,45.5,45.5,41.6,41.6,41.6,86,86,86,30.15,30.15,1,1,4,0.00
2013-1-23,45.5,45.5,45.5,41.6,41.6,41.6,86,86,86,30.15,30.15,1,1,4,0.00
2013-1-24,45.5,45.5,45.5,41.6,41.6,41.6,86,86,86,30.15,30.15,1,1,4,0.00
2013-1-25,45.5,45.5,45.5,41.6,41.6,41.6,86,86,86,30.42,30.07,0,0,0,0.00
2013-1-26,45.5,45.5,45.5,41.6,41.6,41.6,86,86,86,30.33,30.06,0,0,0,0.00
2013-1-27,45.5,45.5,45.5,41.6,41.6,41.6,86,86,86,30.52,30.34,0,0,0,0.00
2013-1-28,45.5,45.5,45.5,41.6,41.6,41.6,86,86,86,30.42,30.22,0,0,0,0.01
2013-1-29,45.5,45.5,45.5,41.6,41.6,41.6,86,86,86,30.21,30.02,2,0,2,0.00
2013-1-30,45.5,45.5,45.5,41.6,41.6,41.6,86,86,86,30.01,30.00,0,0,0,0.00
2013-1-31,39.6,33.1,27.1,22.0,20.0,16.8,79,60,40,29.99,29.96,5,1,12,0.05
2013-2-1,45.5,37.0,16.7,41.6,19.0,-26.9,86,54,12,30.30,29.86,21,6,21,0.00
2013-2-2,44.2,39.2,35.8,34.5,19.9,4.7,89,52,20,29.87,29.73,8,2,11,0.00
2013-2-3,50.7,39.0,28.9,32.3,24.8,17.1,96,59,30,29.73,29.57,21,3,22,0.00
2013-2-4,51.6,36.8,23.7,24.3,19.3,15.0,74,51,27,29.83,29.70,5,0,6,0.00
2013-2-5,64.0,50.8,30.0,35.4,29.8,24.3,86,48,27,29.67,29.59,8,1,9,0.00
2013-2-10,56.8,41.2,27.9,41.3,25.6,15.3,99,62,21,30.13,29.89,0,0,0,0.14
2013-2-11,58.8,49.0,41.2,55.7,48.2,40.7,99,97,89,29.87,29.66,8,0,8,0.06
2013-2-12,58.3,47.9,35.8,39.6,30.9,17.2,91,56,20,29.81,29.63,2,0,2,0.01
2013-2-13,45.5,42.4,32.9,44.7,41.0,30.6,99,95,75,29.66,29.37,6,0,6,0.20
2013-2-14,54.9,38.0,25.3,34.3,29.4,23.9,98,75,39,29.75,29.58,5,0,5,0.01
2013-2-15,63.3,43.4,24.8,37.6,29.4,22.5,96,64,25,29.79,29.62,8,1,8,0.00
2013-2-16,43.2,35.1,31.5,31.5,23.3,10.0,92,64,39,29.69,29.55,9,1,11,0.00
2013-2-17,42.3,33.7,24.1,10.2,1.9,-3.5,54,27,18,29.94,29.81,16,5,17,0.00
2013-2-18,57.4,34.3,16.7,25.3,16.3,9.0,80,52,22,30.05,29.89,4,0,8,0.00
2013-2-19,55.6,40.8,30.9,43.6,29.2,5.7,99,68,21,29.90,29.57,9,1,11,0.08
2013-2-20,54.5,40.9,25.2,16.4,7.1,-2.2,63,26,16,29.83,29.71,10,2,12,0.00
2013-2-21,59.5,39.0,20.1,36.0,16.5,6.8,92,46,17,29.98,29.79,4,0,6,0.06
2013-2-22,38.7,35.9,34.3,37.2,34.9,33.8,98,96,90,30.00,29.82,2,0,4,0.35
2013-2-23,48.6,40.2,34.2,43.1,38.4,33.7,99,94,79,29.84,29.55,4,0,6,0.14
2013-2-24,69.1,51.5,33.8,42.5,27.1,15.5,99,46,13,29.74,29.55,11,1,11,0.00
2013-2-25,46.9,37.4,28.8,27.9,25.2,21.8,85,62,46,29.90,29.73,8,0,8,0.00
2013-2-26,38.7,35.0,31.5,38.4,32.9,20.9,99,93,53,29.81,29.32,9,2,12,0.96
2013-2-27,61.0,44.2,34.7,42.4,36.4,32.4,99,77,40,29.51,29.37,9,1,15,0.00
2013-2-28,49.1,40.9,28.2,32.5,25.3,20.6,79,54,36,29.60,29.44,14,3,16,0.00
2013-3-1,45.9,37.2,25.7,30.8,26.5,21.6,88,66,44,29.63,29.57,8,1,9,0.00
2013-3-2,47.8,37.0,31.1,35.1,26.1,16.9,86,67,33,29.65,29.53,13,2,15,0.01
2013-3-3,44.4,31.9,18.5,19.9,12.4,6.8,79,47,22,29.71,29.60,14,3,14,0.00
2013-3-4,63.0,36.8,17.8,53.3,12.9,5.6,97,42,14,29.82,29.70,11,1,11,0.00
2013-3-5,45.0,39.4,32.4,41.5,34.3,23.3,99,83,58,29.76,29.33,8,0,13,0.50
2013-3-6,45.3,37.8,28.9,39.8,22.9,15.8,99,56,38,29.82,29.34,19,6,19,0.00
2013-3-7,56.3,37.9,24.1,27.0,22.4,18.1,84,57,25,29.98,29.81,9,2,14,0.00
2013-3-8,60.1,38.4,21.2,25.4,19.6,13.3,85,53,18,30.03,29.91,8,2,12,0.00
2013-3-9,71.8,43.3,24.3,32.8,25.4,18.3,85,56,13,30.06,29.93,5,0,6,0.00
2013-3-10,72.7,49.9,33.4,38.9,33.7,25.4,86,59,17,30.00,29.88,4,0,8,0.00
2013-3-11,67.1,51.2,37.2,53.8,41.9,32.5,98,72,49,29.90,29.58,8,0,8,0.25
2013-3-12,65.3,55.6,39.6,56.0,42.6,22.8,99,68,22,29.71,29.46,11,2,13,0.65
2013-3-13,52.9,41.3,28.6,31.8,21.2,10.0,85,49,21,29.87,29.70,18,4,27,0.00
2013-3-14,56.3,39.5,26.6,17.3,10.7,5.5,56,33,16,29.98,29.85,11,3,12,0.00
2013-3-15,71.1,46.4,25.9,37.5,27.2,16.4,78,51,23,29.90,29.61,11,1,12,0.00
2013-3-16,81.9,62.8,44.1,48.0,43.8,36.8,87,54,26,29.61,29.42,14,1,18,0.01
2013-3-17,67.8,54.7,40.6,53.4,45.0,38.0,92,71,49,29.85,29.58,12,1,12,0.00
2013-3-18,40.5,38.2,37.0,39.1,37.7,36.3,99,98,92,29.86,29.57,12,1,12,0.01
2013-3-19,64.8,48.5,34.9,44.2,24.7,6.2,99,52,14,29.78,29.55,17,4,19,0.00
2013-3-20,60.1,46.5,34.2,22.3,11.2,4.3,58,25,16,29.82,29.52,11,1,100,0.00
2013-3-21,44.2,35.4,25.3,26.8,5.9,-4.3,57,30,18,29.69,29.52,18,5,24,0.00
2013-3-22,54.0,33.3,17.2,16.4,10.9,7.1,77,44,18,29.78,29.67,8,1,8,0.00
2013-3-23,66.2,49.2,31.8,38.3,31.7,21.5,86,54,26,29.76,29.61,5,0,6,0.02
2013-3-24,45.0,40.6,36.3,42.5,39.3,35.6,99,95,84,29.64,29.28,10,1,14,0.35
2013-3-25,47.3,38.5,31.6,35.4,26.3,16.0,99,66,31,29.59,29.27,19,5,29,0.09
2013-3-26,50.2,37.4,25.5,25.3,21.8,16.5,83,55,30,29.81,29.58,13,3,16,0.00
2013-3-27,33.1,33.1,33.1,21.9,21.9,21.9,63,63,63,29.88,29.88,0,0,0,0.00
2013-3-28,33.1,33.1,33.1,21.9,21.9,21.9,63,63,63,29.88,29.88,0,0,0,0.00
2013-3-29,51.1,49.8,47.7,35.3,34.6,34.1,61,56,52,29.93,29.92,5,0,6,0.00
2013-3-30,69.6,53.0,36.7,40.2,33.0,25.9,93,53,25,29.93,29.79,8,0,8,0.07
2013-3-31,69.6,60.9,53.8,55.6,54.1,52.7,98,79,55,29.92,29.82,7,1,9,5.41
2013-4-1,54.7,54.7,54.7,53.9,53.9,53.9,97,97,97,29.86,29.86,0,0,0,0.00
2013-4-2,54.7,54.7,54.7,53.9,53.9,53.9,97,97,97,29.86,29.86,0,0,0,5.41
2013-4-19,64.2,59.3,53.1,62.8,54.0,37.3,95,84,53,29.93,29.73,11,1,13,0.00
2013-4-20,72.5,56.0,41.7,39.0,27.7,14.6,84,39,11,30.27,29.93,10,2,17,0.00
2013-4-21,69.8,50.3,33.6,40.6,35.4,31.3,96,62,25,30.46,30.27,8,0,8,0.00
2013-4-22,72.0,51.6,39.4,39.8,33.0,20.1,89,55,15,30.44,30.24,6,0,8,0.00
2013-4-23,80.4,56.1,38.7,49.9,43.1,33.0,88,65,32,30.28,30.11,0,0,0,0.00
2013-4-24,75.7,58.6,46.8,57.1,52.0,45.7,99,81,50,30.14,30.00,5,0,10,0.00
2013-4-25,83.5,60.7,48.0,57.1,37.1,21.4,91,49,11,30.30,30.06,6,0,9,0.00
2013-4-26,77.4,56.9,35.8,49.0,35.4,21.8,93,51,15,30.44,30.30,3,0,6,0.00
2013-4-27,64.6,56.0,52.2,57.0,52.2,46.0,98,88,65,30.38,30.26,0,0,0,0.01
2013-4-28,54.7,53.7,52.7,53.9,53.0,52.2,98,97,97,30.26,30.03,4,0,4,0.00
2013-4-29,84.7,61.5,53.8,62.1,56.8,53.0,99,87,44,30.08,29.96,0,0,3,0.00
2013-4-30,81.3,62.6,55.8,60.6,58.1,54.4,99,87,46,30.19,30.01,0,0,0,0.02
2013-5-1,68.9,59.3,51.1,56.8,54.6,50.8,99,85,63,30.32,30.19,6,0,7,0.00
2013-5-2,62.6,57.2,52.5,55.8,54.3,52.0,98,90,76,30.33,30.25,1,0,4,0.00
2013-5-3,66.4,59.1,53.6,55.3,51.6,45.7,99,77,57,30.26,30.14,6,0,7,0.00
2013-5-4,66.4,53.9,48.6,49.3,45.1,42.0,88,73,52,30.16,30.03,8,0,9,0.00
2013-5-5,55.6,51.7,47.3,55.3,50.6,44.1,99,96,79,30.08,29.88,6,0,7,0.00
2013-5-6,80.1,60.1,48.2,62.3,55.1,47.3,99,86,34,29.92,29.83,4,0,8,0.92
2013-5-7,78.4,55.5,45.1,54.5,49.9,44.3,99,85,34,29.97,29.87,7,0,7,0.12
2013-5-8,78.8,60.6,50.0,59.4,54.6,49.7,99,83,46,30.03,29.93,1,0,6,0.05
2013-5-9,92.1,65.9,47.1,60.6,53.9,46.9,99,71,31,30.10,30.02,7,0,8,0.00
2013-5-10,85.3,68.0,51.4,62.3,57.9,51.2,99,74,40,30.09,29.97,5,0,11,0.00
2013-5-11,87.8,68.8,59.9,63.8,60.5,57.7,99,78,43,29.99,29.82,14,0,19,0.43
2013-5-12,76.3,61.1,45.7,60.4,44.6,24.5,99,64,17,30.06,29.88,11,1,13,0.01
2013-5-13,73.8,53.3,36.3,41.7,31.5,14.4,99,56,11,30.19,30.06,11,1,11,0.00
2013-5-14,82.6,57.6,37.0,47.4,40.7,35.4,99,61,23,30.26,30.08,6,0,8,0.00
2013-5-15,97.7,69.2,47.5,65.8,56.1,46.4,99,69,32,30.08,29.95,5,0,5,0.00
2013-5-16,86.5,66.0,54.9,62.5,57.9,51.0,97,79,34,30.05,29.96,2,0,2,0.00
2013-5-17,94.8,75.8,54.9,66.0,61.1,54.0,99,64,35,30.11,30.02,2,0,2,0.00
2013-5-18,71.8,65.7,59.4,67.4,63.7,58.5,99,93,84,30.17,30.08,0,0,0,0.30
2013-5-19,83.5,70.0,64.6,70.9,66.7,64.3,99,90,63,30.14,30.04,1,0,2,0.15
2013-5-20,94.8,73.3,66.2,71.2,67.1,64.9,99,83,43,30.14,30.04,0,0,1,0.01
2013-5-21,66.4,63.9,61.7,65.2,63.1,61.1,98,97,96,30.05,30.02,0,0,0,0.00
2013-5-22,90.0,67.8,62.6,68.4,63.6,60.7,99,88,44,30.03,29.92,4,0,12,0.54
2013-5-23,91.8,70.5,62.1,70.1,64.1,58.9,99,82,45,30.01,29.84,3,0,7,0.15
2013-5-24,80.2,64.5,52.3,60.5,45.1,26.5,99,57,16,30.22,29.91,14,2,20,0.00
2013-5-25,89.8,62.5,43.2,46.7,39.5,25.7,89,49,13,30.31,30.17,4,0,7,0.00
2013-5-26,88.5,64.8,51.6,56.1,49.6,42.7,92,62,27,30.30,30.18,0,0,1,0.01
2013-5-27,94.5,68.1,49.6,61.8,55.1,49.4,99,69,31,30.29,30.15,2,0,4,0.00
2013-5-28,93.0,72.3,56.8,65.1,61.1,56.6,99,72,38,30.24,30.16,8,0,8,0.00
2013-5-29,97.7,74.6,58.6,66.7,62.1,57.8,98,70,32,30.26,30.17,2,0,5,0.00
2013-5-30,101.5,73.2,55.9,68.8,61.5,55.6,99,72,31,30.30,30.19,1,0,4,0.00
2013-5-31,97.2,74.0,58.3,67.9,62.7,57.7,99,73,33,30.25,30.13,3,0,7,0.05
2013-6-1,96.8,76.0,64.2,67.6,64.8,61.6,97,72,35,30.15,30.04,4,0,6,0.00
2013-6-2,82.8,71.3,66.0,73.9,66.9,63.1,99,87,64,30.07,29.95,4,0,8,0.90
2013-6-3,93.4,73.5,64.9,71.9,67.2,63.9,99,83,46,30.00,29.87,0,0,4,0.01
2013-6-4,93.0,73.3,64.2,68.6,65.1,62.6,99,79,42,30.12,29.99,3,0,5,0.06
2013-6-5,87.6,70.3,64.2,69.3,65.3,61.9,99,85,53,30.14,30.02,4,0,6,0.64
2013-6-6,82.2,70.7,66.0,73.4,69.1,65.8,99,95,72,30.03,29.85,3,0,4,1.28
2013-6-7,88.5,72.4,66.2,73.6,67.7,65.9,99,87,53,29.87,29.69,3,0,3,0.40
2013-6-8,95.7,78.2,63.9,71.4,67.1,63.0,99,71,42,30.11,29.86,0,0,1,0.11
2013-6-9,91.9,72.7,63.3,71.8,67.7,62.5,99,87,47,30.17,30.07,5,0,6,0.01
2013-6-10,88.3,72.6,66.6,73.6,69.0,65.6,99,90,54,30.11,29.92,4,0,7,0.71
2013-6-11,97.5,76.2,65.3,69.5,64.9,60.8,99,74,33,30.03,29.95,5,0,6,0.05
2013-6-12,99.7,78.3,61.2,76.2,68.7,60.6,99,76,43,30.04,29.93,6,0,8,0.00
2013-6-13,74.7,72.3,71.2,72.5,70.6,69.8,96,94,93,29.93,29.89,0,0,0,0.00
2013-6-14,88.5,72.9,59.9,64.2,55.5,51.4,90,58,30,30.07,29.85,11,2,11,0.00
2013-6-15,94.6,70.8,55.2,64.9,60.9,54.4,99,74,36,30.16,30.07,0,0,0,0.00
2013-6-16,94.1,71.1,61.0,68.0,63.9,59.5,97,80,39,30.16,30.04,3,0,3,0.00
2013-6-17,92.8,74.1,68.2,73.4,69.3,65.3,98,86,50,30.07,29.97,8,0,11,0.50
2013-6-18,87.8,73.3,67.3,74.5,70.0,66.6,99,90,63,30.00,29.83,5,0,6,0.25
2013-6-19,95.4,74.4,60.3,68.6,65.1,60.0,99,77,39,30.15,29.94,0,0,1,0.01
2013-6-20,95.7,74.6,63.5,69.4,65.9,62.7,99,78,38,30.26,30.15,1,0,1,0.00
2013-6-21,97.9,73.7,60.6,67.8,63.1,58.5,99,74,35,30.30,30.20,3,0,4,0.00
2013-6-22,101.1,74.9,58.5,68.5,63.1,57.6,98,72,32,30.26,30.14,2,0,5,0.05
2013-6-23,100.8,77.5,63.7,72.8,67.2,62.8,99,75,39,30.24,30.14,0,0,2,0.01
2013-6-24,94.6,73.7,66.4,73.3,69.5,66.0,99,89,48,30.24,30.13,4,0,8,0.66
2013-6-25,98.1,77.4,67.1,74.6,70.0,66.5,99,81,43,30.17,30.03,7,0,10,0.00
2013-6-26,95.9,75.8,65.5,74.2,69.1,65.2,99,82,46,30.07,29.94,4,0,12,0.00
2013-6-29,93.4,82.3,68.4,82.9,70.2,64.9,99,69,44,29.76,29.67,10,1,10,2.07
2013-6-30,95.9,74.8,66.7,73.8,69.4,66.5,99,86,46,29.88,29.74,2,0,4,0.05
2013-7-1,91.4,74.7,65.7,71.2,68.3,65.4,99,82,48,30.00,29.86,4,0,4,0.01
2013-7-2,88.0,73.5,70.2,73.3,70.5,68.2,98,91,54,30.17,29.99,5,0,10,0.72
2013-7-3,86.4,74.6,70.2,75.4,71.6,69.6,99,91,63,30.24,30.14,4,0,5,0.51
2013-7-4,87.3,77.9,67.5,76.2,72.2,67.2,99,84,64,30.27,30.17,4,0,8,1.50
2013-7-5,86.7,86.7,86.7,75.4,75.4,75.4,69,69,69,30.17,30.17,0,0,0,0.00
2013-7-6,86.7,86.7,86.7,75.4,75.4,75.4,69,69,69,30.17,30.17,0,0,0,0.00
2013-7-7,86.7,86.7,86.7,75.4,75.4,75.4,69,69,69,30.17,30.17,0,0,0,0.00
2013-7-8,86.7,86.7,86.7,75.4,75.4,75.4,69,69,69,30.17,30.17,0,0,0,0.00
2013-7-9,86.7,86.7,86.7,75.4,75.4,75.4,69,69,69,30.17,30.17,0,0,0,0.00
2013-7-10,86.7,86.7,86.7,75.4,75.4,75.4,69,69,69,30.17,30.17,0,0,0,0.00
2013-7-11,86.7,86.7,86.7,75.4,75.4,75.4,69,69,69,30.17,30.17,0,0,0,0.00
2013-7-12,86.7,86.7,86.7,75.4,75.4,75.4,69,69,69,30.17,30.17,0,0,0,0.00
2013-7-13,86.7,86.7,86.7,75.4,75.4,75.4,69,69,69,30.17,30.17,0,0,0,0.00
2013-7-14,86.7,86.7,86.7,75.4,75.4,75.4,69,69,69,30.17,30.17,0,0,0,0.00
2013-7-15,86.7,86.7,86.7,75.4,75.4,75.4,69,69,69,30.17,30.17,0,0,0,0.00
2013-7-16,86.7,86.7,86.7,75.4,75.4,75.4,69,69,69,30.17,30.17,0,0,0,0.00
2013-7-17,86.7,86.7,86.7,75.4,75.4,75.4,69,69,69,30.17,30.17,0,0,0,0.00
2013-7-18,86.7,86.7,86.7,75.4,75.4,75.4,69,69,69,30.17,30.17,0,0,0,0.00
2013-7-19,86.7,86.7,86.7,75.4,75.4,75.4,69,69,69,30.17,30.17,0,0,0,0.00
2013-7-20,86.7,86.7,86.7,75.4,75.4,75.4,69,69,69,30.17,30.17,0,0,0,0.00
2013-7-21,86.7,86.7,86.7,75.4,75.4,75.4,69,69,69,30.17,30.17,0,0,0,0.00
2013-7-22,86.7,86.7,86.7,75.4,75.4,75.4,69,69,69,30.17,30.17,0,0,0,0.00
2013-7-23,86.7,86.7,86.7,75.4,75.4,75.4,69,69,69,30.17,30.17,0,0,0,0.00
2013-7-24,86.7,86.7,86.7,75.4,75.4,75.4,69,69,69,30.17,30.17,0,0,0,0.00
2013-7-25,86.7,86.7,86.7,75.4,75.4,75.4,69,69,69,30.17,30.17,0,0,0,0.00
2013-7-26,86.7,86.7,86.7,75.4,75.4,75.4,69,69,69,30.17,30.17,0,0,0,0.00
2013-7-27,86.7,86.7,86.7,75.4,75.4,75.4,69,69,69,30.17,30.17,0,0,0,0.00
2013-7-28,86.7,86.7,86.7,75.4,75.4,75.4,69,69,69,30.17,30.17,0,0,0,0.00
2013-7-29,86.7,86.7,86.7,75.4,75.4,75.4,69,69,69,30.17,30.17,0,0,0,0.00
2013-7-30,86.7,86.7,86.7,75.4,75.4,75.4,69,69,69,30.17,30.17,0,0,0,0.00
2013-7-31,86.7,86.7,86.7,75.4,75.4,75.4,69,69,69,30.17,30.17,0,0,0,0.00
2013-8-1,86.7,86.7,86.7,75.4,75.4,75.4,69,69,69,30.17,30.17,0,0,0,0.00
2013-8-2,86.7,86.7,86.7,75.4,75.4,75.4,69,69,69,30.17,30.17,0,0,0,0.00
2013-8-3,86.7,86.7,86.7,75.4,75.4,75.4,69,69,69,30.17,30.17,0,0,0,0.00
2013-8-4,86.7,86.7,86.7,75.4,75.4,75.4,69,69,69,30.17,30.17,0,0,0,0.00
2013-8-5,86.7,86.7,86.7,75.4,75.4,75.4,69,69,69,30.17,30.17,0,0,0,0.00
2013-8-6,86.7,86.7,86.7,75.4,75.4,75.4,69,69,69,30.17,30.17,0,0,0,0.00
2013-8-7,86.7,86.7,86.7,75.4,75.4,75.4,69,69,69,30.17,30.17,0,0,0,0.00
2013-8-8,86.7,86.7,86.7,75.4,75.4,75.4,69,69,69,30.17,30.17,0,0,0,0.00
2013-8-9,86.7,86.7,86.7,75.4,75.4,75.4,69,69,69,30.17,30.17,0,0,0,0.00
2013-8-10,86.7,86.7,86.7,75.4,75.4,75.4,69,69,69,30.17,30.17,0,0,0,0.00
2013-8-11,86.7,86.7,86.7,75.4,75.4,75.4,69,69,69,30.17,30.17,0,0,0,0.00
2013-8-12,86.7,86.7,86.7,75.4,75.4,75.4,69,69,69,30.17,30.17,0,0,0,0.00
2013-8-13,86.7,86.7,86.7,75.4,75.4,75.4,69,69,69,30.17,30.17,0,0,0,0.00
2013-8-14,86.7,81.9,63.3,75.4,72.2,61.0,92,73,67,30.17,29.91,1,0,1,0.00
2013-8-15,76.3,65.0,56.5,61.0,57.6,53.9,97,78,52,30.03,29.85,7,1,7,0.00
2013-8-16,79.3,65.3,57.2,61.6,58.7,56.1,99,81,52,30.11,29.99,6,1,7,0.05
2013-8-17,67.8,63.2,59.5,63.7,60.3,57.4,97,90,77,30.13,30.06,8,2,9,0.99
2013-8-18,83.3,69.8,63.1,69.6,65.9,62.3,99,88,61,30.12,30.01,4,1,4,0.35
2013-8-19,81.5,71.0,66.2,70.1,67.8,65.4,98,90,65,30.10,29.96,3,0,4,2.99
2013-8-20,86.2,71.9,63.9,72.1,67.5,63.0,99,87,62,30.11,30.02,3,0,4,0.34
2013-8-21,88.9,73.7,67.5,74.0,69.9,66.8,99,89,52,30.17,29.99,5,1,6,0.25
2013-8-22,94.5,79.7,69.8,72.3,69.8,65.3,97,75,43,30.08,29.90,7,2,9,0.09
2013-8-23,90.9,74.1,65.5,72.3,68.0,63.6,98,83,45,30.00,29.87,13,1,26,0.01
2013-8-24,84.7,70.0,60.8,65.6,60.6,57.2,94,75,43,30.18,30.00,9,2,11,0.01
2013-8-25,86.9,73.9,56.8,64.7,60.4,56.5,99,66,41,30.33,30.15,5,1,6,0.02
2013-8-26,93.7,71.2,55.2,68.4,61.3,54.4,99,76,39,30.24,29.99,5,1,5,0.00
2013-8-27,96.4,74.5,59.7,72.3,65.8,59.2,99,78,43,30.04,29.88,7,1,9,0.00
2013-8-28,93.4,78.9,66.9,72.8,69.4,65.0,95,75,47,29.96,29.80,9,1,10,0.02
2013-8-29,97.2,80.6,70.3,74.2,70.7,68.6,95,75,42,29.89,29.78,11,1,11,0.14
2013-8-30,91.2,77.6,70.3,72.1,69.1,65.9,95,78,48,30.00,29.83,5,1,5,0.00
2013-8-31,94.3,74.7,66.4,74.3,69.3,65.5,98,85,48,29.87,29.76,10,1,12,0.00
2013-9-1,93.7,73.2,65.7,75.2,68.6,65.1,99,88,50,29.82,29.65,23,2,23,0.04
2013-9-2,95.0,77.1,65.1,74.4,69.5,64.9,99,81,45,29.79,29.69,6,1,7,0.00
2013-9-3,95.0,76.9,66.7,70.8,66.3,62.4,98,74,40,29.86,29.72,10,2,11,0.00
2013-9-4,96.1,73.6,59.7,69.4,63.7,58.9,98,75,42,30.03,29.87,6,1,6,0.06
2013-9-5,97.0,75.6,63.5,69.2,63.7,54.1,98,72,29,30.06,29.95,4,1,6,0.00
2013-9-6,88.9,71.6,60.1,64.9,61.7,57.7,97,74,43,30.14,29.96,8,1,8,0.00
2013-9-7,88.7,70.6,57.4,66.8,62.5,56.8,98,79,47,30.06,29.85,10,1,10,0.00
2013-9-8,95.0,74.5,60.4,70.2,65.1,59.9,98,76,42,29.90,29.80,6,1,9,0.00
2013-9-9,92.1,76.0,64.0,70.7,66.7,63.2,98,77,44,30.07,29.89,5,1,8,0.00
2013-9-10,96.1,76.1,62.6,71.4,66.9,61.8,98,77,43,30.17,30.04,5,1,7,0.00
2013-9-11,93.2,76.3,64.4,72.1,68.5,63.8,98,80,47,30.13,29.98,5,1,7,0.00
2013-9-12,95.9,75.8,66.9,72.4,68.8,66.1,98,81,44,29.98,29.73,8,1,10,0.99
2013-9-13,85.8,72.4,59.2,67.2,59.4,50.6,96,67,34,29.83,29.69,11,2,14,0.00
2013-9-14,85.1,63.6,50.9,59.3,53.1,49.3,96,72,38,30.02,29.83,8,1,9,0.00
2013-9-15,84.6,65.1,51.8,64.4,57.8,51.3,99,80,49,30.10,29.98,4,1,5,0.00
2013-9-16,88.7,71.0,59.2,66.6,61.6,58.3,99,76,42,30.09,29.97,7,2,7,0.20
2013-9-17,75.0,66.6,59.5,59.4,56.3,53.9,85,70,50,30.24,30.09,8,2,12,0.00
2013-9-18,76.8,64.0,56.3,60.4,55.4,52.4,92,75,48,30.22,30.07,4,1,5,0.00
2013-9-19,82.8,68.0,60.1,66.1,61.5,58.3,95,81,53,30.12,29.93,4,1,8,0.11
2013-9-20,92.7,72.6,60.3,68.4,64.1,59.7,98,78,42,29.93,29.81,5,1,8,0.53
2013-9-21,71.8,68.3,63.0,69.0,66.3,62.1,99,93,84,29.85,29.61,11,2,14,1.28
2013-9-22,84.2,65.6,52.9,62.7,56.6,52.3,99,77,40,29.83,29.64,9,1,11,0.00
2013-9-23,81.5,62.7,52.0,59.5,54.6,51.2,98,78,44,29.98,29.83,8,1,8,0.00
2013-9-24,83.1,65.9,55.4,61.2,58.3,54.6,99,80,44,29.97,29.80,5,0,6,0.00
2013-9-25,73.0,61.3,55.2,63.9,59.3,54.4,99,93,67,29.85,29.76,4,0,4,0.14
2013-9-26,83.7,65.0,54.7,61.6,56.6,53.2,99,78,38,29.95,29.77,8,1,10,0.02
2013-9-27,79.3,63.2,51.4,57.2,54.4,51.2,99,77,43,30.10,29.95,7,1,8,0.00
2013-9-28,75.9,61.2,51.3,56.8,53.9,50.2,98,80,48,30.15,30.06,5,1,8,0.00
2013-9-29,76.3,61.4,50.4,58.6,55.1,49.8,99,82,53,30.08,29.90,4,1,5,0.00
2013-9-30,87.8,64.5,49.8,60.7,55.7,49.6,99,77,36,29.98,29.90,6,1,7,0.00
2013-10-1,88.0,66.0,52.5,63.7,58.0,52.0,99,79,42,30.03,29.93,4,1,6,0.00
2013-10-2,91.0,67.9,54.7,63.4,59.2,53.9,99,78,38,30.06,29.95,4,1,6,0.02
2013-10-3,88.3,68.9,57.9,64.8,60.7,57.3,99,79,42,30.04,29.95,5,1,11,0.02
2013-10-4,93.4,69.7,55.6,68.4,61.6,55.3,99,79,42,30.06,29.95,6,0,6,0.05
2013-10-5,92.3,71.6,59.0,67.8,63.0,58.7,99,79,41,30.04,29.88,6,1,6,0.01
2013-10-6,88.2,69.9,57.7,67.0,62.2,57.5,99,80,43,29.93,29.75,8,1,8,0.17
2013-10-7,76.3,66.5,52.7,69.4,62.0,52.2,99,87,54,29.91,29.70,11,2,12,1.90
2013-10-8,72.9,58.5,48.9,52.0,49.0,46.0,99,74,44,30.13,29.91,11,2,13,0.08
2013-10-9,76.8,59.0,47.7,49.2,45.5,41.0,88,65,32,30.12,30.01,10,3,14,0.04
2013-10-10,75.9,59.7,44.8,60.7,52.4,44.0,99,79,53,30.03,29.87,8,2,11,0.02
2013-10-11,86.5,68.1,59.4,62.1,56.4,53.5,83,68,41,29.89,29.82,9,2,9,0.15
2013-10-12,75.2,65.1,55.8,63.2,59.1,54.4,96,82,59,29.99,29.88,4,0,4,0.65
2013-10-13,77.2,66.4,60.8,62.8,60.8,59.1,96,83,57,30.11,30.00,6,2,8,0.24
2013-10-14,77.4,63.6,56.5,61.6,58.7,55.6,98,85,56,30.16,30.05,9,2,10,0.04
2013-10-15,79.3,62.8,55.9,56.7,54.5,51.9,95,77,40,30.13,29.96,7,1,7,0.00
2013-10-16,79.3,62.5,50.4,60.1,56.2,50.1,99,82,50,30.00,29.85,5,1,6,0.00
2013-10-17,71.8,63.2,57.9,64.0,60.9,57.4,99,92,71,29.88,29.75,8,1,13,0.70
2013-10-18,74.5,59.0,47.8,60.5,53.3,47.6,99,84,48,29.93,29.81,4,1,6,0.13
2013-10-19,64.4,56.2,49.3,60.1,54.5,49.0,99,94,80,29.87,29.71,4,1,7,1.12
2013-10-20,52.2,45.8,38.1,51.4,44.3,37.9,99,95,73,29.93,29.80,7,1,7,0.00
2013-10-21,71.6,52.2,38.1,52.0,46.1,37.9,99,83,47,30.00,29.86,7,1,7,0.00
2013-10-22,70.0,58.4,50.5,55.5,52.7,49.7,99,84,53,29.87,29.66,4,1,4,0.00
2013-10-23,63.7,48.9,42.3,52.7,34.7,28.4,99,60,31,29.87,29.59,17,5,17,0.02
2013-10-24,59.0,44.5,28.6,40.0,32.7,27.3,96,66,38,29.99,29.85,11,2,123,0.00
2013-10-25,54.5,39.9,28.0,36.5,28.8,23.7,98,69,33,30.20,29.99,14,3,16,0.00
2013-10-26,60.8,41.3,26.1,37.9,30.1,23.5,95,69,32,30.17,29.88,9,2,11,0.00
2013-10-27,73.9,52.0,35.2,48.1,42.5,34.0,99,74,38,29.96,29.84,9,1,9,0.01
2013-10-28,73.0,54.4,45.5,56.2,50.3,44.7,99,87,53,30.11,29.95,3,0,3,0.00
2013-10-29,81.1,57.8,45.1,56.6,50.9,44.3,99,81,37,30.17,30.09,5,1,5,0.33
2013-10-30,82.4,62.2,51.3,59.0,54.4,50.7,99,79,42,30.14,30.01,9,1,10,0.11
2013-10-31,68.5,59.6,51.4,62.8,55.4,51.2,99,87,65,30.07,29.73,7,1,11,0.00
2013-11-1,74.7,65.7,57.6,64.5,60.2,56.4,98,83,61,29.73,29.55,14,3,17,0.27
2013-11-2,70.2,54.1,40.3,58.1,42.8,35.1,99,71,29,29.83,29.60,17,2,30,0.24
2013-11-3,66.9,46.5,34.9,39.8,35.3,31.5,97,70,28,30.17,29.83,10,2,13,0.00
2013-11-4,62.8,44.2,32.5,34.7,31.0,25.1,94,65,26,30.34,30.17,8,1,11,0.00
2013-11-5,59.7,46.5,34.7,49.4,37.9,27.0,99,72,56,30.36,30.22,8,2,10,0.00
2013-11-6,72.7,55.1,45.9,53.9,50.0,45.1,99,85,49,30.26,29.98,8,1,8,0.00
2013-11-7,70.2,52.0,39.4,57.2,43.0,31.1,99,75,37,29.98,29.81,17,3,19,0.02
2013-11-8,62.4,42.6,27.9,32.7,25.3,16.3,90,57,20,30.14,29.98,10,2,12,0.00
2013-11-9,59.5,41.2,28.2,34.2,29.0,24.3,91,67,29,30.19,30.01,10,1,12,0.00
2013-11-10,74.5,50.9,32.9,37.9,31.7,24.4,93,56,16,30.08,29.95,14,3,16,0.00
2013-11-11,68.9,43.2,26.6,32.0,26.3,21.7,88,58,18,30.15,29.94,5,1,5,0.00
2013-11-12,63.3,40.7,30.9,40.1,27.1,12.0,89,61,30,30.26,29.84,22,6,24,0.00
2013-11-13,59.0,33.5,18.7,20.4,13.9,5.7,77,49,21,30.30,30.20,13,2,14,0.00
2013-11-14,64.6,36.2,19.2,27.1,19.6,14.7,87,58,19,30.26,30.08,8,1,11,0.00
2013-11-15,58.3,42.6,24.8,45.4,31.3,18.2,97,68,28,30.13,29.99,5,1,5,0.00
2013-11-16,61.3,51.2,46.2,53.5,49.1,45.4,99,93,73,30.12,30.03,4,1,5,0.01
2013-11-17,64.4,58.6,53.2,58.4,56.4,51.4,99,93,77,30.06,29.75,7,1,8,0.81
2013-11-18,72.9,61.7,50.5,61.9,44.2,28.4,99,60,20,29.89,29.69,17,4,17,0.06
2013-11-19,59.5,46.2,34.5,30.9,25.1,16.5,72,46,24,30.09,29.86,13,3,14,0.00
2013-11-20,56.5,41.6,33.4,31.7,28.6,24.6,75,61,37,30.26,30.08,8,3,11,0.00
2013-11-21,54.7,47.9,42.1,45.9,38.8,30.4,84,71,63,30.31,30.17,8,2,8,0.00
2013-11-22,63.9,55.7,49.1,56.5,52.5,45.7,99,89,74,30.23,29.95,8,1,11,0.00
2013-11-23,60.8,52.7,39.4,56.6,39.4,19.1,99,66,28,30.04,29.91,20,4,20,0.04
2013-11-24,42.8,31.9,20.8,20.3,7.7,-1.0,61,37,21,30.33,30.02,15,5,21,0.00
2013-11-25,41.5,28.9,15.8,22.3,9.3,1.5,74,47,23,30.33,30.13,4,1,7,0.00
2013-11-26,43.3,36.6,31.1,42.8,34.1,19.0,99,91,53,30.14,29.44,14,2,14,0.00
2013-11-27,44.4,36.9,24.1,43.9,26.8,10.5,99,69,43,29.98,29.33,23,7,27,0.00
2013-11-28,52.7,30.4,16.7,21.5,15.9,10.1,83,58,24,30.26,29.98,6,1,9,0.00
2013-11-29,58.3,35.1,21.0,28.4,21.6,17.7,88,63,25,30.41,30.23,6,1,7,0.00
2013-11-30,52.9,34.2,25.0,23.7,21.3,18.4,82,61,28,30.45,30.14,9,2,9,0.00
2013-12-1,64.8,37.8,23.2,36.5,27.2,19.6,92,70,31,30.15,29.80,6,1,9,0.00
2013-12-2,66.0,43.6,27.9,38.1,33.5,26.1,97,72,31,29.80,29.59,5,1,5,0.00
2013-12-3,60.6,50.1,39.4,50.4,44.7,35.8,95,82,67,29.78,29.64,10,1,10,0.00
2013-12-4,56.7,53.7,51.1,55.8,53.0,50.4,99,98,95,29.91,29.76,2,0,3,0.01
2013-12-5,65.8,61.9,55.2,65.6,61.0,54.4,99,97,93,29.93,29.84,10,2,12,0.12
2013-12-6,74.7,69.4,61.9,65.9,63.0,59.8,99,81,65,29.90,29.82,24,6,26,0.13
2013-12-7,61.9,52.4,42.3,60.4,45.9,34.4,99,79,64,30.25,29.87,10,4,12,0.17
2013-12-8,42.1,35.5,32.4,36.2,32.4,30.3,96,88,75,30.24,30.06,14,3,14,0.00
2013-12-9,42.1,37.9,32.5,41.8,37.3,31.5,99,98,96,30.05,29.84,4,1,4,0.61
2013-12-10,53.1,42.3,25.5,47.1,35.0,19.9,99,79,34,30.13,29.70,23,3,24,0.65
2013-12-11,55.2,33.4,19.4,28.1,21.7,16.1,88,66,27,30.20,30.05,9,1,9,0.00
2013-12-12,50.7,35.4,24.1,23.8,14.8,6.5,81,46,21,30.18,30.06,11,2,12,0.00
2013-12-13,55.4,33.6,18.7,27.0,18.3,12.1,84,58,22,30.14,30.00,11,1,12,0.00
2013-12-14,39.0,37.1,35.1,37.2,32.9,26.3,98,85,66,30.04,29.57,11,2,11,0.00
2013-12-15,51.1,39.7,26.6,40.9,31.7,20.9,99,76,43,29.88,29.52,12,3,14,0.00
2013-12-16,64.0,39.9,24.4,33.5,27.8,20.3,89,66,29,29.92,29.82,8,1,9,0.00
2013-12-17,66.4,45.6,27.9,36.5,30.6,23.5,92,61,29,29.91,29.68,25,4,29,0.00
2013-12-18,55.8,39.1,26.6,23.7,16.9,9.6,69,43,21,30.08,29.85,15,3,16,0.00
2013-12-19,64.4,41.5,22.6,27.6,22.0,17.6,84,52,20,30.09,29.96,11,2,11,0.00
2013-12-20,63.3,48.9,36.7,46.6,37.6,26.6,88,66,47,30.03,29.91,11,2,11,0.00
2013-12-21,65.7,56.4,44.6,58.6,52.6,43.3,96,87,73,29.97,29.84,6,1,8,0.00
2013-12-22,69.6,63.6,59.2,64.4,61.3,56.8,99,92,76,29.93,29.80,14,4,21,3.87
2013-12-23,62.8,56.0,42.4,61.9,52.2,31.1,99,88,63,30.03,29.82,9,3,11,0.00
2013-12-24,45.3,35.7,25.9,33.0,21.6,9.5,94,59,29,30.23,29.98,16,4,18,0.00
2013-12-25,46.8,27.1,15.6,19.1,9.9,1.0,83,52,22,30.34,30.16,6,1,8,0.00
2013-12-26,59.0,32.2,18.7,27.1,18.8,12.3,83,62,25,30.17,30.04,5,1,6,0.00
2013-12-27,63.3,35.0,22.8,27.6,20.5,13.3,86,61,21,30.28,30.13,7,1,8,0.00
2013-12-28,54.9,38.4,22.6,40.4,28.5,17.7,96,71,31,30.20,29.95,6,1,6,0.00
2013-12-29,62.4,45.4,36.5,48.0,40.5,33.3,99,85,49,29.95,29.57,18,3,19,0.00
2013-12-30,36.7,33.0,30.4,34.3,31.4,29.1,96,94,91,29.82,29.75,2,0,3,0.00
2013-12-31,53.2,38.8,27.1,35.2,23.1,14.7,92,59,23,30.17,29.90,11,2,11,0.00
2014-1-1,51.4,39.9,25.0,29.5,25.8,19.1,83,59,34,30.19,29.93,8,1,9,0.00
2014-1-2,40.1,35.8,30.2,39.1,31.8,12.9,98,86,47,29.94,29.40,17,2,24,0.00